Wan Hai 273 — 9V7586 — position and weather

sailwx.info

Track history (hours):
 
Tides and Currents Weather Stations Pressure Air Temp Water Temp Dewpoint Dewpoint Depression Visibility Wind Speed Wind Dir Waves Ship Positions

Wan Hai 273

Last reported at 2016-Aug-27 11:33 UTC. Time now 2016-Aug-28 20:44 UTC.
Position N 16°08' E 108°28'.

Length 172 m; draft 9.6 m.

Type: Cargo ship. MMSI: 566406000.

Date/timePositionNaut miles runAvg speedWind from/ knotsBaromVisibWave heightAir tempDewpointWater temp
2016-Aug-27 11:33N 16°08' E 108°28'1414.4
2016-Aug-27 10:33N 16°09' E 108°13'2 1.6
2016-Aug-27 09:31N 16°07' E 108°13'0 0.0
2016-Aug-27 08:25N 16°07' E 108°13'0 0.0
2016-Aug-27 07:28N 16°07' E 108°13'0 0.0
2016-Aug-27 06:28N 16°07' E 108°13'0 0.0
2016-Aug-27 04:32N 16°07' E 108°13'0 0.0
2016-Aug-27 03:33N 16°07' E 108°13'0 0.0
2016-Aug-27 02:33N 16°07' E 108°13'0 0.0
2016-Aug-27 01:33N 16°07' E 108°13'0 0.1
2016-Aug-27 00:30N 16°07' E 108°13'7 7.2
2016-Aug-26 23:30N 16°14' E 108°16'49217.4
2016-Aug-25 19:13N 22°18' E 114°06'1110.1
2016-Aug-25 18:09N 22°22' E 113°55'5 8.6
2016-Aug-25 17:33N 22°27' E 113°53'1 1.0
2016-Aug-25 16:29N 22°28' E 113°54'0 0.0
2016-Aug-25 15:29N 22°28' E 113°54'0 0.0
2016-Aug-25 14:05N 22°28' E 113°54'0 0.0
2016-Aug-25 13:29N 22°28' E 113°54'0 0.0
2016-Aug-25 12:29N 22°28' E 113°54'0 0.0
2016-Aug-25 11:23N 22°28' E 113°54'0 0.0
2016-Aug-25 10:29N 22°28' E 113°54'0 0.0
2016-Aug-25 09:11N 22°28' E 113°54'0 0.0
2016-Aug-25 08:32N 22°28' E 113°54'0 0.0
2016-Aug-25 07:32N 22°28' E 113°54'4 3.7
2016-Aug-25 06:33N 22°24' E 113°54'13 2.1
2016-Aug-25 00:14N 22°20' E 114°08'0 0.0
2016-Aug-24 22:20N 22°20' E 114°08'0 0.0
2016-Aug-24 19:32N 22°20' E 114°08'1 0.7
2016-Aug-24 17:33N 22°19' E 114°07'2010.1
2016-Aug-24 15:33N 22°09' E 114°25'13717.1
2016-Aug-24 07:33N 22°49' E 116°47'1817.6
2016-Aug-24 06:33N 22°59' E 117°03'6017.1
2016-Aug-24 03:03N 23°38' E 117°53'2617.1
2016-Aug-24 01:30N 23°54' E 118°16'1817.1
2016-Aug-24 00:25N 24°05' E 118°31'1917.1
2016-Aug-23 23:18N 24°18' E 118°47'1317.1
2016-Aug-23 22:33N 24°26' E 118°58'1717.2
2016-Aug-23 21:33N 24°37' E 119°12'3617.0
2016-Aug-23 19:28N 25°02' E 119°40'30618.1
2016-Aug-23 02:31N 29°31' E 122°25'1615.7
2016-Aug-23 01:29N 29°46' E 122°18'1212.6
2016-Aug-23 00:33N 29°55' E 122°09'1414.1
2016-Aug-22 23:33N 29°57' E 121°53'3 1.2
2016-Aug-22 21:23N 29°57' E 121°50'0 0.0
2016-Aug-22 16:11N 29°57' E 121°50'1 1.5
2016-Aug-22 15:33N 29°58' E 121°50'8 8.4
2016-Aug-22 14:33N 29°58' E 121°59'1211.9
2016-Aug-22 13:33N 29°52' E 122°12'1211.8
2016-Aug-22 12:33N 29°45' E 122°22'1 0.1
2016-Aug-22 00:07N 29°45' E 122°24'5 8.2
2016-Aug-21 23:33N 29°46' E 122°29'2017.9
2016-Aug-21 22:28N 29°57' E 122°48'4117.4
2016-Aug-21 20:06N 30°34' E 123°10'  
Track history (hours):
 
Tides and Currents Weather Stations Pressure Air Temp Water Temp Dewpoint Dewpoint Depression Visibility Wind Speed Wind Dir Waves Ship Positions

Wan Hai 273

Last reported at 2016-Aug-27 11:33 UTC. Time now 2016-Aug-28 20:44 UTC.
Position N 16°08' E 108°28'.

Length 172 m; draft 9.6 m.

Type: Cargo ship. MMSI: 566406000.

Date/timePositionNaut miles runAvg speedWind from/ knotsBaromVisibWave heightAir tempDewpointWater temp
2016-Aug-27 11:33N 16°08' E 108°28'1414.4
2016-Aug-27 10:33N 16°09' E 108°13'2 1.6
2016-Aug-27 09:31N 16°07' E 108°13'0 0.0
2016-Aug-27 08:25N 16°07' E 108°13'0 0.0
2016-Aug-27 07:28N 16°07' E 108°13'0 0.0
2016-Aug-27 06:28N 16°07' E 108°13'0 0.0
2016-Aug-27 04:32N 16°07' E 108°13'0 0.0
2016-Aug-27 03:33N 16°07' E 108°13'0 0.0
2016-Aug-27 02:33N 16°07' E 108°13'0 0.0
2016-Aug-27 01:33N 16°07' E 108°13'0 0.1
2016-Aug-27 00:30N 16°07' E 108°13'7 7.2
2016-Aug-26 23:30N 16°14' E 108°16'49217.4
2016-Aug-25 19:13N 22°18' E 114°06'1110.1
2016-Aug-25 18:09N 22°22' E 113°55'5 8.6
2016-Aug-25 17:33N 22°27' E 113°53'1 1.0
2016-Aug-25 16:29N 22°28' E 113°54'0 0.0
2016-Aug-25 15:29N 22°28' E 113°54'0 0.0
2016-Aug-25 14:05N 22°28' E 113°54'0 0.0
2016-Aug-25 13:29N 22°28' E 113°54'0 0.0
2016-Aug-25 12:29N 22°28' E 113°54'0 0.0
2016-Aug-25 11:23N 22°28' E 113°54'0 0.0
2016-Aug-25 10:29N 22°28' E 113°54'0 0.0
2016-Aug-25 09:11N 22°28' E 113°54'0 0.0
2016-Aug-25 08:32N 22°28' E 113°54'0 0.0
2016-Aug-25 07:32N 22°28' E 113°54'4 3.7
2016-Aug-25 06:33N 22°24' E 113°54'13 2.1
2016-Aug-25 00:14N 22°20' E 114°08'0 0.0
2016-Aug-24 22:20N 22°20' E 114°08'0 0.0
2016-Aug-24 19:32N 22°20' E 114°08'1 0.7
2016-Aug-24 17:33N 22°19' E 114°07'2010.1
2016-Aug-24 15:33N 22°09' E 114°25'13717.1
2016-Aug-24 07:33N 22°49' E 116°47'1817.6
2016-Aug-24 06:33N 22°59' E 117°03'6017.1
2016-Aug-24 03:03N 23°38' E 117°53'2617.1
2016-Aug-24 01:30N 23°54' E 118°16'1817.1
2016-Aug-24 00:25N 24°05' E 118°31'1917.1
2016-Aug-23 23:18N 24°18' E 118°47'1317.1
2016-Aug-23 22:33N 24°26' E 118°58'1717.2
2016-Aug-23 21:33N 24°37' E 119°12'3617.0
2016-Aug-23 19:28N 25°02' E 119°40'30618.1
2016-Aug-23 02:31N 29°31' E 122°25'1615.7
2016-Aug-23 01:29N 29°46' E 122°18'1212.6
2016-Aug-23 00:33N 29°55' E 122°09'1414.1
2016-Aug-22 23:33N 29°57' E 121°53'3 1.2
2016-Aug-22 21:23N 29°57' E 121°50'0 0.0
2016-Aug-22 16:11N 29°57' E 121°50'1 1.5
2016-Aug-22 15:33N 29°58' E 121°50'8 8.4
2016-Aug-22 14:33N 29°58' E 121°59'1211.9
2016-Aug-22 13:33N 29°52' E 122°12'1211.8
2016-Aug-22 12:33N 29°45' E 122°22'1 0.1
2016-Aug-22 00:07N 29°45' E 122°24'5 8.2
2016-Aug-21 23:33N 29°46' E 122°29'2017.9
2016-Aug-21 22:28N 29°57' E 122°48'4117.4
2016-Aug-21 20:06N 30°34' E 123°10'  

Dump ship's entire track history